createdAt,value
2022-11-23T00:01:24.062Z,46.47
2022-11-23T00:03:53.698Z,49.95
2022-11-23T00:06:22.196Z,37.42
2022-11-23T00:08:49.653Z,38.90
2022-11-23T00:11:18.437Z,44.50
2022-11-23T00:13:45.228Z,51.47
2022-11-23T00:16:17.761Z,40.78
2022-11-23T00:18:44.747Z,45.30
2022-11-23T00:21:17.011Z,42.80
2022-11-23T00:23:46.417Z,42.63
2022-11-23T00:26:13.716Z,45.65
2022-11-23T00:28:40.931Z,46.55
2022-11-23T00:31:10.520Z,44.95
2022-11-23T00:33:38.831Z,41.40
2022-11-23T00:36:13.550Z,34.90
2022-11-23T00:38:47.514Z,45.00
2022-11-23T00:41:16.933Z,48.53
2022-11-23T00:43:45.563Z,51.65
2022-11-23T00:46:19.581Z,43.60
2022-11-23T00:48:49.000Z,40.53
2022-11-23T00:51:21.416Z,38.92
2022-11-23T00:53:50.185Z,35.63
2022-11-23T00:56:18.704Z,48.15
2022-11-23T00:58:52.614Z,45.78
2022-11-23T01:01:24.278Z,39.85
2022-11-23T01:03:54.750Z,39.83
2022-11-23T01:06:28.777Z,33.00
2022-11-23T01:09:01.282Z,39.70
2022-11-23T01:11:31.549Z,36.83
2022-11-23T01:13:58.631Z,36.35
2022-11-23T01:16:33.711Z,41.95
2022-11-23T01:19:03.449Z,40.17
2022-11-23T01:21:31.268Z,41.35
2022-11-23T01:24:06.369Z,37.78
2022-11-23T01:26:34.949Z,35.03
2022-11-23T01:29:02.237Z,44.45
2022-11-23T01:37:15.642Z,38.97
2022-11-23T01:39:43.687Z,39.58
2022-11-23T01:42:15.138Z,37.75
2022-11-23T01:44:49.009Z,39.30
2022-11-23T01:47:17.311Z,41.65
2022-11-23T01:49:49.389Z,37.80
2022-11-23T01:52:23.381Z,45.47
2022-11-23T01:54:54.615Z,37.72
2022-11-23T01:57:28.931Z,33.88
2022-11-23T01:59:57.439Z,46.83
2022-11-23T02:02:28.352Z,42.60
2022-11-23T02:05:02.521Z,36.90
2022-11-23T02:07:30.255Z,38.28
2022-11-23T02:10:08.499Z,40.47
2022-11-23T02:12:36.294Z,31.27
2022-11-23T02:15:04.473Z,38.75
2022-11-23T02:17:31.245Z,34.33
2022-11-23T02:20:14.098Z,37.95
2022-11-23T02:22:56.400Z,36.03
2022-11-23T02:25:35.886Z,39.95
2022-11-23T02:28:03.606Z,34.00
2022-11-23T02:30:32.922Z,44.58
2022-11-23T02:32:59.517Z,37.10
2022-11-23T02:35:28.638Z,38.92
2022-11-23T02:37:55.143Z,34.85
2022-11-23T02:40:31.917Z,49.35
2022-11-23T02:43:00.440Z,45.03
2022-11-23T02:45:39.093Z,40.40
2022-11-23T02:48:07.046Z,43.90
2022-11-23T02:50:33.991Z,42.10
2022-11-23T02:53:00.650Z,39.70
2022-11-23T02:55:27.521Z,45.13
2022-11-23T02:57:57.436Z,37.13
2022-11-23T03:00:25.482Z,35.40
2022-11-23T03:02:53.156Z,46.38
2022-11-23T03:05:20.401Z,28.17
2022-11-23T03:07:52.059Z,43.08
2022-11-23T03:10:21.853Z,31.70
2022-11-23T03:12:57.474Z,40.13
2022-11-23T03:15:25.680Z,37.90
2022-11-23T03:17:53.762Z,35.67
2022-11-23T03:20:43.673Z,40.80
2022-11-23T03:23:10.680Z,35.00
2022-11-23T03:26:13.238Z,34.75
2022-11-23T03:28:53.502Z,34.05
2022-11-23T03:31:25.022Z,32.58
2022-11-23T03:34:18.956Z,33.80
2022-11-23T03:36:49.516Z,36.80
2022-11-23T03:39:16.806Z,35.00
2022-11-23T03:42:03.411Z,35.25
2022-11-23T03:44:33.749Z,33.88
2022-11-23T03:47:04.089Z,31.95
2022-11-23T03:49:34.239Z,29.85
2022-11-23T03:52:00.972Z,36.53
2022-11-23T03:54:27.923Z,33.58
2022-11-23T03:57:21.249Z,29.55
2022-11-23T04:00:03.464Z,33.05
2022-11-23T04:02:55.855Z,33.70
2022-11-23T04:05:49.843Z,25.55
2022-11-23T04:08:41.609Z,29.73
2022-11-23T04:11:14.956Z,33.78
2022-11-23T04:13:52.754Z,34.22
2022-11-23T04:16:51.024Z,29.08
2022-11-23T04:19:17.733Z,35.65
2022-11-23T04:21:59.782Z,31.80
2022-11-23T04:24:37.203Z,26.15
2022-11-23T04:27:06.022Z,37.95
2022-11-23T04:29:33.447Z,35.33
2022-11-23T04:32:01.127Z,32.42
2022-11-23T04:34:28.172Z,37.42
2022-11-23T04:36:56.864Z,32.13
2022-11-23T04:39:39.376Z,31.77
2022-11-23T04:43:02.181Z,30.17
2022-11-23T04:45:34.184Z,29.35
2022-11-23T04:48:43.134Z,31.90
2022-11-23T04:51:11.707Z,22.75
2022-11-23T04:54:22.182Z,31.38
2022-11-23T04:56:56.822Z,25.05
2022-11-23T04:59:32.642Z,29.83
2022-11-23T05:01:59.901Z,31.38
2022-11-23T05:07:32.125Z,31.75
2022-11-23T05:10:28.520Z,22.17
2022-11-23T05:12:58.958Z,28.63
2022-11-23T05:15:35.059Z,41.00
2022-11-23T05:18:07.986Z,26.30
2022-11-23T05:20:46.419Z,36.13
2022-11-23T05:23:19.556Z,29.63
2022-11-23T05:25:54.760Z,26.67
2022-11-23T05:28:40.372Z,25.25
2022-11-23T05:31:19.913Z,34.08
2022-11-23T05:33:52.891Z,34.53
2022-11-23T05:36:42.205Z,27.67
2022-11-23T05:39:35.998Z,27.58
2022-11-23T05:45:43.951Z,26.50
2022-11-23T05:51:09.513Z,34.70
2022-11-23T05:54:13.515Z,31.05
2022-11-23T05:56:56.812Z,35.53
2022-11-23T05:59:36.649Z,33.58
2022-11-23T06:02:05.123Z,38.13
2022-11-23T06:04:35.306Z,30.40
2022-11-23T06:07:05.299Z,32.03
2022-11-23T06:09:50.703Z,35.97
2022-11-23T06:12:18.710Z,29.75
2022-11-23T06:14:46.932Z,40.15
2022-11-23T06:17:16.348Z,29.50
2022-11-23T06:19:47.969Z,29.58
2022-11-23T06:22:21.790Z,39.35
2022-11-23T06:24:59.288Z,23.95
2022-11-23T06:27:57.721Z,28.90
2022-11-23T06:30:33.767Z,26.10
2022-11-23T06:33:10.730Z,29.13
2022-11-23T06:36:01.016Z,40.28
2022-11-23T06:38:46.726Z,24.77
2022-11-23T06:41:18.681Z,25.40
2022-11-23T06:43:49.300Z,28.83
2022-11-23T06:46:25.612Z,30.98
2022-11-23T06:48:52.441Z,35.40
2022-11-23T06:51:21.648Z,26.45
2022-11-23T06:53:52.491Z,27.27
2022-11-23T06:56:21.990Z,31.40
2022-11-23T06:58:49.138Z,23.85
2022-11-23T07:01:21.492Z,27.67
2022-11-23T07:03:55.530Z,32.22
2022-11-23T07:06:28.444Z,33.50
2022-11-23T07:08:58.786Z,26.58
2022-11-23T07:11:56.446Z,32.67
2022-11-23T07:14:36.962Z,34.38
2022-11-23T07:17:03.843Z,34.38
2022-11-23T07:19:30.913Z,26.98
2022-11-23T07:22:00.190Z,28.10
2022-11-23T07:24:26.759Z,34.50
2022-11-23T07:26:53.632Z,38.63
2022-11-23T07:29:21.213Z,25.38
2022-11-23T07:31:48.247Z,28.52
2022-11-23T07:34:15.059Z,25.77
2022-11-23T07:36:45.581Z,27.05
2022-11-23T07:39:12.187Z,32.10
2022-11-23T07:41:39.325Z,31.58
2022-11-23T07:44:16.110Z,33.38
2022-11-23T07:46:44.554Z,30.38
2022-11-23T07:49:11.508Z,36.35
2022-11-23T07:51:39.824Z,32.70
2022-11-23T07:54:07.837Z,41.55
2022-11-23T07:56:34.675Z,23.10
2022-11-23T07:59:01.887Z,24.02
2022-11-23T08:01:31.635Z,29.67
2022-11-23T08:03:58.197Z,24.63
2022-11-23T08:06:24.728Z,21.55
2022-11-23T08:08:57.684Z,26.40
2022-11-23T08:11:24.432Z,34.67
2022-11-23T08:13:51.168Z,33.15
2022-11-23T08:16:20.468Z,21.90
2022-11-23T08:18:51.699Z,21.60
2022-11-23T08:21:18.697Z,20.92
2022-11-23T08:23:54.289Z,26.67
2022-11-23T08:26:55.822Z,25.83
2022-11-23T08:29:22.718Z,29.92
2022-11-23T08:31:49.262Z,26.13
2022-11-23T08:34:19.205Z,21.52
2022-11-23T08:36:45.887Z,28.92
2022-11-23T08:39:14.859Z,25.40
2022-11-23T08:41:42.184Z,27.70
2022-11-23T08:44:11.121Z,18.50
2022-11-23T08:46:38.862Z,20.58
2022-11-23T08:49:19.932Z,22.67
2022-11-23T08:51:52.448Z,23.92
2022-11-23T08:54:26.427Z,27.05
2022-11-23T08:56:54.714Z,26.35
2022-11-23T08:59:21.608Z,22.20
2022-11-23T09:01:53.782Z,20.77
2022-11-23T09:04:24.268Z,16.77
2022-11-23T09:06:50.976Z,26.05
2022-11-23T09:09:18.318Z,26.17
2022-11-23T09:11:44.850Z,22.45
2022-11-23T09:14:13.645Z,20.88
2022-11-23T09:16:41.569Z,28.67
2022-11-23T09:19:14.298Z,17.20
2022-11-23T09:21:44.172Z,17.10
2022-11-23T09:24:14.434Z,23.05
2022-11-23T09:29:38.385Z,17.40
2022-11-23T09:32:08.236Z,15.73
2022-11-23T09:34:37.284Z,15.43
2022-11-23T09:37:04.501Z,15.95
2022-11-23T09:39:31.243Z,17.55
2022-11-23T09:42:28.919Z,18.08
2022-11-23T09:45:25.795Z,13.50
2022-11-23T09:48:23.238Z,10.82
2022-11-23T09:51:14.246Z,13.57
2022-11-23T09:54:04.561Z,10.43
2022-11-23T09:56:38.517Z,16.50
2022-11-23T09:59:23.845Z,12.25
2022-11-23T10:01:51.617Z,16.50
2022-11-23T10:04:22.671Z,10.50
2022-11-23T10:07:02.784Z,15.52
2022-11-23T10:09:38.162Z,13.88
2022-11-23T10:12:14.989Z,18.60
2022-11-23T10:14:56.334Z,15.35
2022-11-23T10:17:51.172Z,10.02
2022-11-23T10:20:29.383Z,16.05
2022-11-23T10:23:01.263Z,10.70
2022-11-23T10:25:38.895Z,14.23
2022-11-23T10:28:15.139Z,11.60
2022-11-23T10:30:43.432Z,9.38
2022-11-23T10:33:42.698Z,9.13
2022-11-23T10:36:13.754Z,9.57
2022-11-23T10:38:41.241Z,14.95
2022-11-23T10:41:09.322Z,12.40
2022-11-23T10:43:38.775Z,11.10
2022-11-23T10:46:32.295Z,11.63
2022-11-23T10:49:20.077Z,15.90
2022-11-23T10:51:54.189Z,15.18
2022-11-23T10:54:33.771Z,10.25
2022-11-23T10:57:20.851Z,9.30
2022-11-23T11:00:19.592Z,11.75
2022-11-23T11:02:50.296Z,12.57
2022-11-23T11:05:53.157Z,14.00
2022-11-23T11:08:17.092Z,15.57
2022-11-23T11:10:58.235Z,13.93
2022-11-23T11:13:28.235Z,9.90
2022-11-23T11:16:04.521Z,12.23
2022-11-23T11:27:36.975Z,10.00
2022-11-23T11:30:20.553Z,6.45
2022-11-23T11:33:19.556Z,17.85
2022-11-23T11:35:55.113Z,11.65
2022-11-23T11:38:35.100Z,15.50
2022-11-23T11:41:07.996Z,13.95
2022-11-23T11:44:10.362Z,11.88
2022-11-23T11:46:42.222Z,8.02
2022-11-23T11:49:26.321Z,15.18
2022-11-23T11:52:03.330Z,17.45
2022-11-23T11:54:44.141Z,12.35
2022-11-23T11:57:22.289Z,11.07
2022-11-23T11:59:53.113Z,7.47
2022-11-23T12:02:29.840Z,14.32
2022-11-23T12:05:13.826Z,14.48
2022-11-23T12:08:01.850Z,16.77
2022-11-23T12:11:07.551Z,20.77
2022-11-23T12:13:39.404Z,13.05
2022-11-23T12:16:25.082Z,13.93
2022-11-23T12:19:11.777Z,20.08
2022-11-23T12:22:09.130Z,9.18
2022-11-23T12:24:59.026Z,12.70
2022-11-23T12:27:49.069Z,14.20
2022-11-23T12:30:20.404Z,12.88
2022-11-23T12:33:26.366Z,17.00
2022-11-23T12:36:12.569Z,9.13
2022-11-23T12:39:05.089Z,9.53
2022-11-23T12:42:13.288Z,8.02
2022-11-23T12:45:07.127Z,13.95
2022-11-23T12:48:04.309Z,11.77
2022-11-23T12:50:58.729Z,9.82
2022-11-23T12:53:42.612Z,8.05
2022-11-23T12:56:44.825Z,6.03
2022-11-23T12:59:14.564Z,8.80
2022-11-23T13:02:02.920Z,9.25
2022-11-23T13:05:10.685Z,11.98
2022-11-23T13:08:18.427Z,8.98
2022-11-23T13:11:11.109Z,9.23
2022-11-23T13:14:01.157Z,12.70
2022-11-23T13:16:45.579Z,15.90
2022-11-23T13:19:34.234Z,5.30
2022-11-23T13:22:06.727Z,12.65
2022-11-23T13:24:38.014Z,7.82
2022-11-23T13:27:14.236Z,11.50
2022-11-23T13:30:01.893Z,10.82
2022-11-23T13:32:39.127Z,7.03
2022-11-23T14:05:57.375Z,3.42
2022-11-23T14:08:25.279Z,7.47
2022-11-23T14:10:54.935Z,7.85
2022-11-23T14:13:32.080Z,5.75
2022-11-23T14:16:05.636Z,11.90
2022-11-23T14:40:27.316Z,13.52
2022-11-23T14:43:21.429Z,9.95
2022-11-23T14:45:48.733Z,13.13
2022-11-23T14:48:30.147Z,8.00
2022-11-23T15:23:34.334Z,11.93
2022-11-23T15:26:47.445Z,13.93
2022-11-23T15:29:50.533Z,8.40
2022-11-23T15:32:33.173Z,12.38
2022-11-23T15:43:25.524Z,9.85
2022-11-23T15:46:07.757Z,15.88
2022-11-23T15:48:40.215Z,11.80
2022-11-23T16:02:23.868Z,10.73
2022-11-23T16:05:15.008Z,15.88
2022-11-23T16:08:01.176Z,13.20
2022-11-23T16:13:42.378Z,21.08
2022-11-23T16:33:24.024Z,17.05
2022-11-23T16:35:59.456Z,19.60
2022-11-23T16:41:30.207Z,13.20
2022-11-23T16:43:56.698Z,21.83
2022-11-23T16:46:27.495Z,14.52
2022-11-23T16:48:54.359Z,16.40
2022-11-23T16:51:23.212Z,17.75
2022-11-23T16:54:14.528Z,16.10
2022-11-23T17:47:53.543Z,17.25
2022-11-23T17:50:32.628Z,12.07
2022-11-23T17:55:44.469Z,13.40
2022-11-23T18:00:54.278Z,18.33
2022-11-23T18:03:23.274Z,18.63
2022-11-23T18:05:52.157Z,14.88
2022-11-23T18:11:09.127Z,11.02
2022-11-23T18:13:37.335Z,14.52
2022-11-23T18:16:05.977Z,15.10
2022-11-23T18:22:28.060Z,12.13
2022-11-23T18:24:57.925Z,18.58
2022-11-23T18:27:36.646Z,9.77
2022-11-23T18:30:04.360Z,12.65
2022-11-23T18:38:33.153Z,13.18
2022-11-23T18:41:04.268Z,14.20
2022-11-23T18:43:36.635Z,16.60
2022-11-23T19:05:37.503Z,12.55
2022-11-23T19:08:07.146Z,8.13
2022-11-23T19:10:37.129Z,20.42
2022-11-23T19:13:10.131Z,18.13
2022-11-23T19:15:39.107Z,17.85
2022-11-23T19:18:06.054Z,17.52
2022-11-23T19:20:32.768Z,13.02
2022-11-23T19:23:02.699Z,11.85
2022-11-23T19:25:30.325Z,22.08
2022-11-23T19:28:00.096Z,18.40
2022-11-23T19:30:27.383Z,10.15
2022-11-23T19:32:53.901Z,18.55
2022-11-23T19:35:21.798Z,13.10
2022-11-23T19:37:52.102Z,14.45
2022-11-23T19:40:19.765Z,12.95
2022-11-23T19:42:48.495Z,12.40
2022-11-23T19:45:15.463Z,27.95
2022-11-23T19:47:42.540Z,13.77
2022-11-23T19:50:09.456Z,17.40
2022-11-23T19:53:04.114Z,15.02
2022-11-23T19:55:25.289Z,11.60
2022-11-23T19:57:51.807Z,12.00
2022-11-23T20:00:23.497Z,17.25
2022-11-23T20:02:51.807Z,19.75
2022-11-23T20:05:18.338Z,14.18
2022-11-23T20:07:46.370Z,11.07
2022-11-23T20:10:17.615Z,17.67
2022-11-23T20:12:45.925Z,15.15
2022-11-23T20:15:13.094Z,19.15
2022-11-23T20:17:40.077Z,16.30
2022-11-23T20:20:07.581Z,19.70
2022-11-23T20:22:37.783Z,14.80
2022-11-23T20:25:06.925Z,20.10
2022-11-23T20:27:33.688Z,18.27
2022-11-23T20:30:03.058Z,15.70
2022-11-23T20:32:29.993Z,16.80
2022-11-23T20:35:00.623Z,16.73
2022-11-23T20:37:27.643Z,15.52
2022-11-23T20:39:54.242Z,14.95
2022-11-23T20:42:21.954Z,18.42
2022-11-23T20:45:00.238Z,20.90
2022-11-23T20:47:29.781Z,17.83
2022-11-23T20:49:56.476Z,17.35
2022-11-23T20:52:24.840Z,21.77
2022-11-23T20:54:52.365Z,16.48
2022-11-23T20:57:21.574Z,11.00
2022-11-23T20:59:50.191Z,10.88
2022-11-23T21:02:19.153Z,14.20
2022-11-23T21:04:46.653Z,25.02
2022-11-23T21:07:13.212Z,19.70
2022-11-23T21:09:39.726Z,16.85
2022-11-23T21:12:25.046Z,29.63
2022-11-23T21:14:53.005Z,13.93
2022-11-23T21:17:21.278Z,17.95
2022-11-23T21:19:47.862Z,11.23
2022-11-23T21:22:19.547Z,14.40
2022-11-23T21:24:46.156Z,12.85
2022-11-23T21:27:14.539Z,13.90
2022-11-23T21:29:41.204Z,20.52
2022-11-23T21:32:07.770Z,17.25
2022-11-23T21:34:35.998Z,13.80
2022-11-23T21:37:03.724Z,8.32
2022-11-23T21:39:31.154Z,13.13
2022-11-23T21:41:57.965Z,15.10
2022-11-23T21:44:24.757Z,15.30
2022-11-23T21:46:57.370Z,19.42
2022-11-23T21:49:27.674Z,20.98
2022-11-23T21:51:54.392Z,16.73
2022-11-23T21:54:22.088Z,13.32
2022-11-23T21:56:50.006Z,16.85
2022-11-23T21:59:17.750Z,9.95
2022-11-23T22:01:46.466Z,14.48
2022-11-23T22:04:15.902Z,9.90
2022-11-23T22:06:49.092Z,10.57
2022-11-23T22:09:15.622Z,12.77
2022-11-23T22:11:44.081Z,20.60
2022-11-23T22:14:13.674Z,15.63
2022-11-23T22:16:44.433Z,13.40
2022-11-23T22:19:13.020Z,15.20
2022-11-23T22:21:41.104Z,16.55
2022-11-23T22:24:15.783Z,9.73
2022-11-23T22:26:44.298Z,12.35
2022-11-23T22:29:13.015Z,12.18
2022-11-23T22:31:39.899Z,10.52
2022-11-23T22:34:09.123Z,10.77
2022-11-23T22:36:35.956Z,17.17
2022-11-23T22:39:06.050Z,16.25
2022-11-23T22:41:37.681Z,9.32
2022-11-23T22:44:06.332Z,12.07
2022-11-23T22:46:33.581Z,11.88
2022-11-23T22:49:00.313Z,12.00
2022-11-23T22:51:30.236Z,11.35
2022-11-23T22:53:58.841Z,13.35
2022-11-23T22:56:28.654Z,18.50
2022-11-23T22:58:55.387Z,10.85
2022-11-23T23:01:32.190Z,20.15
2022-11-23T23:04:01.522Z,13.98
2022-11-23T23:06:33.744Z,13.23
2022-11-23T23:09:03.358Z,12.88
2022-11-23T23:11:32.541Z,9.95
2022-11-23T23:14:05.195Z,8.90
2022-11-23T23:16:33.046Z,11.38
2022-11-23T23:18:59.904Z,8.95
2022-11-23T23:21:35.850Z,7.28
2022-11-23T23:24:06.083Z,15.18
2022-11-23T23:26:42.259Z,9.75
2022-11-23T23:29:09.556Z,11.75
2022-11-23T23:31:36.174Z,12.07
2022-11-23T23:34:04.038Z,8.55
2022-11-23T23:36:38.174Z,19.67
2022-11-23T23:39:06.807Z,13.75
2022-11-23T23:41:35.506Z,8.52
2022-11-23T23:44:02.858Z,12.93
2022-11-23T23:46:30.559Z,11.85
2022-11-23T23:48:58.172Z,6.75
2022-11-23T23:51:25.288Z,12.25
2022-11-23T23:53:53.163Z,15.15
2022-11-23T23:56:23.032Z,12.05
2022-11-23T23:58:51.435Z,14.80
